sensor_id;sensor_type;location;lat;lon;timestamp;P1;durP1;ratioP1;P2;durP2;ratioP2
4420;SDS011;11824;51.178;13.546;2024-02-26T00:00:11;29.90;;;15.47;;
4420;SDS011;11824;51.178;13.546;2024-02-26T00:02:41;32.60;;;16.67;;
4420;SDS011;11824;51.178;13.546;2024-02-26T00:05:10;31.73;;;14.90;;
4420;SDS011;11824;51.178;13.546;2024-02-26T00:07:39;28.90;;;16.00;;
4420;SDS011;11824;51.178;13.546;2024-02-26T00:10:10;26.50;;;16.30;;
4420;SDS011;11824;51.178;13.546;2024-02-26T00:12:39;35.07;;;15.80;;
4420;SDS011;11824;51.178;13.546;2024-02-26T00:15:08;26.83;;;14.70;;
4420;SDS011;11824;51.178;13.546;2024-02-26T00:17:37;29.63;;;15.43;;
4420;SDS011;11824;51.178;13.546;2024-02-26T00:20:07;31.43;;;16.90;;
4420;SDS011;11824;51.178;13.546;2024-02-26T00:22:37;27.17;;;15.37;;
4420;SDS011;11824;51.178;13.546;2024-02-26T00:25:06;32.53;;;15.13;;
4420;SDS011;11824;51.178;13.546;2024-02-26T00:27:36;27.87;;;14.63;;
4420;SDS011;11824;51.178;13.546;2024-02-26T00:30:07;32.33;;;16.60;;
4420;SDS011;11824;51.178;13.546;2024-02-26T00:32:36;30.97;;;16.50;;
4420;SDS011;11824;51.178;13.546;2024-02-26T00:35:05;27.80;;;14.90;;
4420;SDS011;11824;51.178;13.546;2024-02-26T00:37:36;32.10;;;17.00;;
4420;SDS011;11824;51.178;13.546;2024-02-26T00:40:06;26.13;;;14.33;;
4420;SDS011;11824;51.178;13.546;2024-02-26T00:42:37;23.40;;;14.60;;
4420;SDS011;11824;51.178;13.546;2024-02-26T00:45:11;28.90;;;15.73;;
4420;SDS011;11824;51.178;13.546;2024-02-26T00:47:40;30.10;;;15.40;;
4420;SDS011;11824;51.178;13.546;2024-02-26T00:50:11;30.20;;;15.33;;
4420;SDS011;11824;51.178;13.546;2024-02-26T00:52:40;28.07;;;15.27;;
4420;SDS011;11824;51.178;13.546;2024-02-26T00:55:09;29.47;;;16.00;;
4420;SDS011;11824;51.178;13.546;2024-02-26T00:57:39;33.50;;;16.10;;
4420;SDS011;11824;51.178;13.546;2024-02-26T01:00:08;26.97;;;16.37;;
4420;SDS011;11824;51.178;13.546;2024-02-26T01:02:38;30.23;;;16.10;;
4420;SDS011;11824;51.178;13.546;2024-02-26T01:05:08;31.50;;;15.07;;
4420;SDS011;11824;51.178;13.546;2024-02-26T01:07:37;33.43;;;14.67;;
4420;SDS011;11824;51.178;13.546;2024-02-26T01:10:06;29.00;;;16.77;;
4420;SDS011;11824;51.178;13.546;2024-02-26T01:12:35;28.93;;;15.73;;
4420;SDS011;11824;51.178;13.546;2024-02-26T01:15:06;28.47;;;16.70;;
4420;SDS011;11824;51.178;13.546;2024-02-26T01:17:36;27.80;;;15.90;;
4420;SDS011;11824;51.178;13.546;2024-02-26T01:20:05;30.53;;;16.10;;
4420;SDS011;11824;51.178;13.546;2024-02-26T01:22:36;27.43;;;15.60;;
4420;SDS011;11824;51.178;13.546;2024-02-26T01:25:07;29.47;;;15.40;;
4420;SDS011;11824;51.178;13.546;2024-02-26T01:27:37;28.33;;;12.40;;
4420;SDS011;11824;51.178;13.546;2024-02-26T01:30:10;24.33;;;13.27;;
4420;SDS011;11824;51.178;13.546;2024-02-26T01:32:42;25.73;;;12.20;;
4420;SDS011;11824;51.178;13.546;2024-02-26T01:35:11;25.10;;;15.27;;
4420;SDS011;11824;51.178;13.546;2024-02-26T01:37:40;29.17;;;15.30;;
4420;SDS011;11824;51.178;13.546;2024-02-26T01:40:10;26.60;;;14.00;;
4420;SDS011;11824;51.178;13.546;2024-02-26T01:42:44;28.93;;;14.10;;
4420;SDS011;11824;51.178;13.546;2024-02-26T01:45:15;27.10;;;13.90;;
4420;SDS011;11824;51.178;13.546;2024-02-26T01:47:49;28.10;;;15.93;;
4420;SDS011;11824;51.178;13.546;2024-02-26T01:50:19;29.80;;;16.57;;
4420;SDS011;11824;51.178;13.546;2024-02-26T01:52:49;33.70;;;15.57;;
4420;SDS011;11824;51.178;13.546;2024-02-26T01:55:20;30.50;;;17.80;;
4420;SDS011;11824;51.178;13.546;2024-02-26T01:57:50;39.87;;;18.00;;
4420;SDS011;11824;51.178;13.546;2024-02-26T02:00:22;40.77;;;17.87;;
4420;SDS011;11824;51.178;13.546;2024-02-26T02:02:52;30.17;;;17.80;;
4420;SDS011;11824;51.178;13.546;2024-02-26T02:05:21;33.07;;;18.47;;
4420;SDS011;11824;51.178;13.546;2024-02-26T02:07:52;35.03;;;19.20;;
4420;SDS011;11824;51.178;13.546;2024-02-26T02:10:21;32.07;;;17.47;;
4420;SDS011;11824;51.178;13.546;2024-02-26T02:12:52;31.10;;;16.67;;
4420;SDS011;11824;51.178;13.546;2024-02-26T02:15:22;42.13;;;18.30;;
4420;SDS011;11824;51.178;13.546;2024-02-26T02:17:51;31.57;;;16.60;;
4420;SDS011;11824;51.178;13.546;2024-02-26T02:20:24;36.43;;;18.10;;
4420;SDS011;11824;51.178;13.546;2024-02-26T02:22:54;30.60;;;18.60;;
4420;SDS011;11824;51.178;13.546;2024-02-26T02:25:22;30.70;;;15.73;;
4420;SDS011;11824;51.178;13.546;2024-02-26T02:27:52;38.63;;;18.23;;
4420;SDS011;11824;51.178;13.546;2024-02-26T02:30:23;35.13;;;17.97;;
4420;SDS011;11824;51.178;13.546;2024-02-26T02:32:55;38.13;;;19.23;;
4420;SDS011;11824;51.178;13.546;2024-02-26T02:35:26;35.00;;;16.67;;
4420;SDS011;11824;51.178;13.546;2024-02-26T02:37:55;30.17;;;16.33;;
4420;SDS011;11824;51.178;13.546;2024-02-26T02:40:24;33.70;;;18.17;;
4420;SDS011;11824;51.178;13.546;2024-02-26T02:42:53;39.47;;;17.37;;
4420;SDS011;11824;51.178;13.546;2024-02-26T02:45:22;30.93;;;17.10;;
4420;SDS011;11824;51.178;13.546;2024-02-26T02:47:51;37.57;;;16.87;;
4420;SDS011;11824;51.178;13.546;2024-02-26T02:50:20;34.60;;;17.27;;
4420;SDS011;11824;51.178;13.546;2024-02-26T02:52:50;33.03;;;14.50;;
4420;SDS011;11824;51.178;13.546;2024-02-26T02:55:19;38.57;;;18.93;;
4420;SDS011;11824;51.178;13.546;2024-02-26T02:57:47;34.93;;;17.40;;
4420;SDS011;11824;51.178;13.546;2024-02-26T03:00:16;36.57;;;19.77;;
4420;SDS011;11824;51.178;13.546;2024-02-26T03:02:46;36.23;;;17.17;;
4420;SDS011;11824;51.178;13.546;2024-02-26T03:05:14;39.53;;;19.23;;
4420;SDS011;11824;51.178;13.546;2024-02-26T03:07:43;37.53;;;17.77;;
4420;SDS011;11824;51.178;13.546;2024-02-26T03:10:14;44.97;;;18.40;;
4420;SDS011;11824;51.178;13.546;2024-02-26T03:12:43;39.87;;;17.10;;
4420;SDS011;11824;51.178;13.546;2024-02-26T03:15:12;32.47;;;17.77;;
4420;SDS011;11824;51.178;13.546;2024-02-26T03:17:41;40.47;;;18.00;;
4420;SDS011;11824;51.178;13.546;2024-02-26T03:20:10;36.13;;;18.27;;
4420;SDS011;11824;51.178;13.546;2024-02-26T03:22:39;43.97;;;21.47;;
4420;SDS011;11824;51.178;13.546;2024-02-26T03:25:08;47.30;;;20.57;;
4420;SDS011;11824;51.178;13.546;2024-02-26T03:27:38;39.80;;;19.07;;
4420;SDS011;11824;51.178;13.546;2024-02-26T03:30:07;31.07;;;16.53;;
4420;SDS011;11824;51.178;13.546;2024-02-26T03:32:37;39.77;;;19.70;;
4420;SDS011;11824;51.178;13.546;2024-02-26T03:35:06;48.43;;;19.17;;
4420;SDS011;11824;51.178;13.546;2024-02-26T03:37:36;34.50;;;17.30;;
4420;SDS011;11824;51.178;13.546;2024-02-26T03:40:05;37.73;;;18.30;;
4420;SDS011;11824;51.178;13.546;2024-02-26T03:42:35;35.27;;;17.90;;
4420;SDS011;11824;51.178;13.546;2024-02-26T03:45:06;42.07;;;20.37;;
4420;SDS011;11824;51.178;13.546;2024-02-26T03:47:37;32.60;;;15.93;;
4420;SDS011;11824;51.178;13.546;2024-02-26T03:50:07;37.63;;;17.03;;
4420;SDS011;11824;51.178;13.546;2024-02-26T03:52:36;36.70;;;18.20;;
4420;SDS011;11824;51.178;13.546;2024-02-26T03:55:05;34.20;;;17.67;;
4420;SDS011;11824;51.178;13.546;2024-02-26T03:57:34;37.87;;;16.87;;
4420;SDS011;11824;51.178;13.546;2024-02-26T04:00:06;42.40;;;23.13;;
4420;SDS011;11824;51.178;13.546;2024-02-26T04:02:35;43.70;;;21.20;;
4420;SDS011;11824;51.178;13.546;2024-02-26T04:05:04;40.00;;;19.67;;
4420;SDS011;11824;51.178;13.546;2024-02-26T04:07:36;40.13;;;19.33;;
4420;SDS011;11824;51.178;13.546;2024-02-26T04:10:08;36.33;;;17.90;;
4420;SDS011;11824;51.178;13.546;2024-02-26T04:12:39;68.17;;;28.57;;
4420;SDS011;11824;51.178;13.546;2024-02-26T04:15:09;64.73;;;27.13;;
4420;SDS011;11824;51.178;13.546;2024-02-26T04:17:38;57.67;;;25.13;;
4420;SDS011;11824;51.178;13.546;2024-02-26T04:20:08;39.87;;;20.80;;
4420;SDS011;11824;51.178;13.546;2024-02-26T04:22:40;42.37;;;20.70;;
4420;SDS011;11824;51.178;13.546;2024-02-26T04:25:09;41.60;;;19.53;;
4420;SDS011;11824;51.178;13.546;2024-02-26T04:27:39;55.00;;;24.67;;
4420;SDS011;11824;51.178;13.546;2024-02-26T04:30:08;79.97;;;29.80;;
4420;SDS011;11824;51.178;13.546;2024-02-26T04:32:38;42.80;;;20.87;;
4420;SDS011;11824;51.178;13.546;2024-02-26T04:35:07;46.03;;;20.57;;
4420;SDS011;11824;51.178;13.546;2024-02-26T04:37:36;66.10;;;29.00;;
4420;SDS011;11824;51.178;13.546;2024-02-26T04:40:06;53.40;;;20.70;;
4420;SDS011;11824;51.178;13.546;2024-02-26T04:42:35;69.70;;;24.07;;
4420;SDS011;11824;51.178;13.546;2024-02-26T04:45:06;50.87;;;23.43;;
4420;SDS011;11824;51.178;13.546;2024-02-26T04:47:35;65.93;;;28.50;;
4420;SDS011;11824;51.178;13.546;2024-02-26T04:50:05;118.00;;;40.33;;
4420;SDS011;11824;51.178;13.546;2024-02-26T04:52:34;43.97;;;21.57;;
4420;SDS011;11824;51.178;13.546;2024-02-26T04:55:04;44.20;;;20.20;;
4420;SDS011;11824;51.178;13.546;2024-02-26T04:57:32;43.03;;;19.57;;
4420;SDS011;11824;51.178;13.546;2024-02-26T05:00:01;47.37;;;20.10;;
4420;SDS011;11824;51.178;13.546;2024-02-26T05:02:32;44.40;;;20.10;;
4420;SDS011;11824;51.178;13.546;2024-02-26T05:05:04;63.73;;;26.20;;
4420;SDS011;11824;51.178;13.546;2024-02-26T05:07:39;59.63;;;26.90;;
4420;SDS011;11824;51.178;13.546;2024-02-26T05:10:09;73.33;;;27.20;;
4420;SDS011;11824;51.178;13.546;2024-02-26T05:12:38;56.80;;;26.93;;
4420;SDS011;11824;51.178;13.546;2024-02-26T05:15:09;46.43;;;22.40;;
4420;SDS011;11824;51.178;13.546;2024-02-26T05:17:43;52.30;;;24.37;;
4420;SDS011;11824;51.178;13.546;2024-02-26T05:20:12;47.80;;;22.27;;
4420;SDS011;11824;51.178;13.546;2024-02-26T05:22:41;50.30;;;21.67;;
4420;SDS011;11824;51.178;13.546;2024-02-26T05:25:10;48.47;;;22.47;;
4420;SDS011;11824;51.178;13.546;2024-02-26T05:27:39;60.27;;;23.83;;
4420;SDS011;11824;51.178;13.546;2024-02-26T05:30:09;52.67;;;22.73;;
4420;SDS011;11824;51.178;13.546;2024-02-26T05:32:39;37.50;;;20.13;;
4420;SDS011;11824;51.178;13.546;2024-02-26T05:35:09;53.33;;;23.47;;
4420;SDS011;11824;51.178;13.546;2024-02-26T05:37:38;111.50;;;39.27;;
4420;SDS011;11824;51.178;13.546;2024-02-26T05:40:07;105.37;;;41.27;;
4420;SDS011;11824;51.178;13.546;2024-02-26T05:42:36;106.27;;;45.53;;
4420;SDS011;11824;51.178;13.546;2024-02-26T05:45:06;98.73;;;41.57;;
4420;SDS011;11824;51.178;13.546;2024-02-26T05:47:36;90.30;;;33.50;;
4420;SDS011;11824;51.178;13.546;2024-02-26T05:50:10;61.97;;;28.10;;
4420;SDS011;11824;51.178;13.546;2024-02-26T05:52:41;44.53;;;22.47;;
4420;SDS011;11824;51.178;13.546;2024-02-26T05:55:10;34.83;;;19.07;;
4420;SDS011;11824;51.178;13.546;2024-02-26T05:57:39;50.63;;;18.50;;
4420;SDS011;11824;51.178;13.546;2024-02-26T06:00:08;58.27;;;25.17;;
4420;SDS011;11824;51.178;13.546;2024-02-26T06:02:41;87.70;;;35.70;;
4420;SDS011;11824;51.178;13.546;2024-02-26T06:05:11;94.80;;;41.23;;
4420;SDS011;11824;51.178;13.546;2024-02-26T06:07:40;51.07;;;24.07;;
4420;SDS011;11824;51.178;13.546;2024-02-26T06:10:09;59.97;;;29.00;;
4420;SDS011;11824;51.178;13.546;2024-02-26T06:12:40;37.33;;;17.67;;
4420;SDS011;11824;51.178;13.546;2024-02-26T06:15:09;52.30;;;20.60;;
4420;SDS011;11824;51.178;13.546;2024-02-26T06:17:38;38.00;;;17.50;;
4420;SDS011;11824;51.178;13.546;2024-02-26T06:20:07;51.17;;;23.23;;
4420;SDS011;11824;51.178;13.546;2024-02-26T06:22:41;40.33;;;17.47;;
4420;SDS011;11824;51.178;13.546;2024-02-26T06:25:10;38.43;;;15.30;;
4420;SDS011;11824;51.178;13.546;2024-02-26T06:27:38;38.53;;;17.87;;
4420;SDS011;11824;51.178;13.546;2024-02-26T06:30:07;44.37;;;22.37;;
4420;SDS011;11824;51.178;13.546;2024-02-26T06:32:37;43.23;;;21.53;;
4420;SDS011;11824;51.178;13.546;2024-02-26T06:35:07;35.87;;;17.47;;
4420;SDS011;11824;51.178;13.546;2024-02-26T06:37:38;33.47;;;17.80;;
4420;SDS011;11824;51.178;13.546;2024-02-26T06:40:08;80.20;;;34.53;;
4420;SDS011;11824;51.178;13.546;2024-02-26T06:42:37;77.40;;;32.67;;
4420;SDS011;11824;51.178;13.546;2024-02-26T06:45:06;54.23;;;23.50;;
4420;SDS011;11824;51.178;13.546;2024-02-26T06:47:35;50.27;;;21.70;;
4420;SDS011;11824;51.178;13.546;2024-02-26T06:50:04;58.57;;;26.07;;
4420;SDS011;11824;51.178;13.546;2024-02-26T06:52:33;59.00;;;26.60;;
4420;SDS011;11824;51.178;13.546;2024-02-26T06:55:04;73.73;;;35.00;;
4420;SDS011;11824;51.178;13.546;2024-02-26T06:57:35;60.80;;;25.40;;
4420;SDS011;11824;51.178;13.546;2024-02-26T07:00:04;46.77;;;24.07;;
4420;SDS011;11824;51.178;13.546;2024-02-26T07:02:33;59.97;;;28.53;;
4420;SDS011;11824;51.178;13.546;2024-02-26T07:05:05;52.10;;;27.37;;
4420;SDS011;11824;51.178;13.546;2024-02-26T07:07:35;59.83;;;25.37;;
4420;SDS011;11824;51.178;13.546;2024-02-26T07:10:06;46.00;;;26.10;;
4420;SDS011;11824;51.178;13.546;2024-02-26T07:12:35;60.23;;;24.40;;
4420;SDS011;11824;51.178;13.546;2024-02-26T07:15:04;53.50;;;26.27;;
4420;SDS011;11824;51.178;13.546;2024-02-26T07:17:34;50.13;;;25.00;;
4420;SDS011;11824;51.178;13.546;2024-02-26T07:20:03;56.20;;;28.10;;
4420;SDS011;11824;51.178;13.546;2024-02-26T07:22:36;52.67;;;26.27;;
4420;SDS011;11824;51.178;13.546;2024-02-26T07:25:06;58.20;;;28.60;;
4420;SDS011;11824;51.178;13.546;2024-02-26T07:27:38;53.67;;;27.03;;
4420;SDS011;11824;51.178;13.546;2024-02-26T07:30:07;73.80;;;30.73;;
4420;SDS011;11824;51.178;13.546;2024-02-26T07:32:37;61.83;;;31.53;;
4420;SDS011;11824;51.178;13.546;2024-02-26T07:35:06;74.13;;;33.87;;
4420;SDS011;11824;51.178;13.546;2024-02-26T07:37:35;60.60;;;33.40;;
4420;SDS011;11824;51.178;13.546;2024-02-26T07:40:07;66.27;;;32.70;;
4420;SDS011;11824;51.178;13.546;2024-02-26T07:42:36;66.77;;;35.10;;
4420;SDS011;11824;51.178;13.546;2024-02-26T07:45:06;64.87;;;31.10;;
4420;SDS011;11824;51.178;13.546;2024-02-26T07:47:35;122.60;;;55.10;;
4420;SDS011;11824;51.178;13.546;2024-02-26T07:50:07;79.67;;;38.53;;
4420;SDS011;11824;51.178;13.546;2024-02-26T07:52:38;58.80;;;29.30;;
4420;SDS011;11824;51.178;13.546;2024-02-26T07:55:09;53.33;;;28.60;;
4420;SDS011;11824;51.178;13.546;2024-02-26T07:57:41;48.13;;;25.47;;
4420;SDS011;11824;51.178;13.546;2024-02-26T08:00:10;46.30;;;23.90;;
4420;SDS011;11824;51.178;13.546;2024-02-26T08:02:43;55.73;;;24.87;;
4420;SDS011;11824;51.178;13.546;2024-02-26T08:05:13;42.53;;;24.80;;
4420;SDS011;11824;51.178;13.546;2024-02-26T08:07:42;70.37;;;39.00;;
4420;SDS011;11824;51.178;13.546;2024-02-26T08:10:13;93.10;;;43.13;;
4420;SDS011;11824;51.178;13.546;2024-02-26T08:12:42;63.27;;;33.60;;
4420;SDS011;11824;51.178;13.546;2024-02-26T08:15:11;53.33;;;29.07;;
4420;SDS011;11824;51.178;13.546;2024-02-26T08:17:40;51.73;;;28.90;;
4420;SDS011;11824;51.178;13.546;2024-02-26T08:20:09;45.30;;;22.13;;
4420;SDS011;11824;51.178;13.546;2024-02-26T08:22:39;45.63;;;23.93;;
4420;SDS011;11824;51.178;13.546;2024-02-26T08:25:08;47.10;;;24.13;;
4420;SDS011;11824;51.178;13.546;2024-02-26T08:27:39;38.03;;;22.80;;
4420;SDS011;11824;51.178;13.546;2024-02-26T08:30:08;39.70;;;21.10;;
4420;SDS011;11824;51.178;13.546;2024-02-26T08:32:39;39.33;;;21.10;;
4420;SDS011;11824;51.178;13.546;2024-02-26T08:35:09;36.00;;;22.80;;
4420;SDS011;11824;51.178;13.546;2024-02-26T08:37:38;43.77;;;23.30;;
4420;SDS011;11824;51.178;13.546;2024-02-26T08:40:07;47.73;;;23.80;;
4420;SDS011;11824;51.178;13.546;2024-02-26T08:42:39;40.10;;;21.97;;
4420;SDS011;11824;51.178;13.546;2024-02-26T08:45:08;45.50;;;24.87;;
4420;SDS011;11824;51.178;13.546;2024-02-26T08:47:38;50.57;;;28.43;;
4420;SDS011;11824;51.178;13.546;2024-02-26T08:50:07;47.27;;;25.40;;
4420;SDS011;11824;51.178;13.546;2024-02-26T08:52:38;37.07;;;21.30;;
4420;SDS011;11824;51.178;13.546;2024-02-26T08:55:08;38.20;;;22.43;;
4420;SDS011;11824;51.178;13.546;2024-02-26T08:57:36;34.20;;;19.20;;
4420;SDS011;11824;51.178;13.546;2024-02-26T09:00:07;50.97;;;23.93;;
4420;SDS011;11824;51.178;13.546;2024-02-26T09:02:37;37.60;;;20.13;;
4420;SDS011;11824;51.178;13.546;2024-02-26T09:05:06;35.10;;;19.03;;
4420;SDS011;11824;51.178;13.546;2024-02-26T09:07:36;27.30;;;15.60;;
4420;SDS011;11824;51.178;13.546;2024-02-26T09:10:05;23.60;;;11.57;;
4420;SDS011;11824;51.178;13.546;2024-02-26T09:12:37;19.87;;;9.67;;
4420;SDS011;11824;51.178;13.546;2024-02-26T09:15:07;21.40;;;12.17;;
4420;SDS011;11824;51.178;13.546;2024-02-26T09:17:37;17.70;;;10.20;;
4420;SDS011;11824;51.178;13.546;2024-02-26T09:20:06;20.70;;;11.10;;
4420;SDS011;11824;51.178;13.546;2024-02-26T09:22:36;19.73;;;9.77;;
4420;SDS011;11824;51.178;13.546;2024-02-26T09:25:05;24.83;;;10.73;;
4420;SDS011;11824;51.178;13.546;2024-02-26T09:27:35;18.03;;;9.20;;
4420;SDS011;11824;51.178;13.546;2024-02-26T09:30:10;20.40;;;10.60;;
4420;SDS011;11824;51.178;13.546;2024-02-26T09:32:40;14.83;;;10.13;;
4420;SDS011;11824;51.178;13.546;2024-02-26T09:35:09;17.30;;;10.80;;
4420;SDS011;11824;51.178;13.546;2024-02-26T09:37:37;14.60;;;9.43;;
4420;SDS011;11824;51.178;13.546;2024-02-26T09:40:06;19.87;;;10.60;;
4420;SDS011;11824;51.178;13.546;2024-02-26T09:42:40;16.97;;;9.10;;
4420;SDS011;11824;51.178;13.546;2024-02-26T09:45:17;17.30;;;10.00;;
4420;SDS011;11824;51.178;13.546;2024-02-26T09:47:47;18.47;;;9.13;;
4420;SDS011;11824;51.178;13.546;2024-02-26T09:50:17;14.53;;;8.60;;
4420;SDS011;11824;51.178;13.546;2024-02-26T09:52:49;15.87;;;9.10;;
4420;SDS011;11824;51.178;13.546;2024-02-26T09:55:19;19.23;;;10.03;;
4420;SDS011;11824;51.178;13.546;2024-02-26T09:57:48;16.97;;;9.70;;
4420;SDS011;11824;51.178;13.546;2024-02-26T10:00:22;21.87;;;10.30;;
4420;SDS011;11824;51.178;13.546;2024-02-26T10:02:52;17.27;;;8.80;;
4420;SDS011;11824;51.178;13.546;2024-02-26T10:05:23;17.00;;;9.77;;
4420;SDS011;11824;51.178;13.546;2024-02-26T10:07:53;17.50;;;10.13;;
4420;SDS011;11824;51.178;13.546;2024-02-26T10:10:24;16.23;;;9.13;;
4420;SDS011;11824;51.178;13.546;2024-02-26T10:12:53;15.97;;;9.50;;
4420;SDS011;11824;51.178;13.546;2024-02-26T10:15:24;23.23;;;9.90;;
4420;SDS011;11824;51.178;13.546;2024-02-26T10:17:53;20.00;;;10.43;;
4420;SDS011;11824;51.178;13.546;2024-02-26T10:20:23;17.80;;;10.13;;
4420;SDS011;11824;51.178;13.546;2024-02-26T10:22:52;27.37;;;13.77;;
4420;SDS011;11824;51.178;13.546;2024-02-26T10:25:21;13.37;;;8.80;;
4420;SDS011;11824;51.178;13.546;2024-02-26T10:27:50;16.10;;;8.70;;
4420;SDS011;11824;51.178;13.546;2024-02-26T10:30:19;18.67;;;11.43;;
4420;SDS011;11824;51.178;13.546;2024-02-26T10:32:53;14.00;;;9.43;;
4420;SDS011;11824;51.178;13.546;2024-02-26T10:35:23;15.23;;;9.57;;
4420;SDS011;11824;51.178;13.546;2024-02-26T10:37:52;16.40;;;9.80;;
4420;SDS011;11824;51.178;13.546;2024-02-26T10:40:21;12.77;;;8.10;;
4420;SDS011;11824;51.178;13.546;2024-02-26T10:42:50;24.40;;;9.23;;
4420;SDS011;11824;51.178;13.546;2024-02-26T10:45:19;23.93;;;9.60;;
4420;SDS011;11824;51.178;13.546;2024-02-26T10:47:48;11.43;;;7.63;;
4420;SDS011;11824;51.178;13.546;2024-02-26T10:50:19;18.93;;;10.00;;
4420;SDS011;11824;51.178;13.546;2024-02-26T10:52:48;14.83;;;9.30;;
4420;SDS011;11824;51.178;13.546;2024-02-26T10:55:17;14.77;;;8.90;;
4420;SDS011;11824;51.178;13.546;2024-02-26T10:57:47;16.40;;;8.20;;
4420;SDS011;11824;51.178;13.546;2024-02-26T11:00:18;15.07;;;8.03;;
4420;SDS011;11824;51.178;13.546;2024-02-26T11:02:47;14.63;;;8.10;;
4420;SDS011;11824;51.178;13.546;2024-02-26T11:05:19;26.13;;;11.03;;
4420;SDS011;11824;51.178;13.546;2024-02-26T11:07:48;15.53;;;9.00;;
4420;SDS011;11824;51.178;13.546;2024-02-26T11:10:19;13.70;;;8.70;;
4420;SDS011;11824;51.178;13.546;2024-02-26T11:12:48;15.03;;;8.93;;
4420;SDS011;11824;51.178;13.546;2024-02-26T11:15:18;15.97;;;10.33;;
4420;SDS011;11824;51.178;13.546;2024-02-26T11:17:48;19.60;;;8.77;;
4420;SDS011;11824;51.178;13.546;2024-02-26T11:20:17;17.57;;;8.43;;
4420;SDS011;11824;51.178;13.546;2024-02-26T11:22:50;17.30;;;9.40;;
4420;SDS011;11824;51.178;13.546;2024-02-26T11:25:19;14.43;;;8.67;;
4420;SDS011;11824;51.178;13.546;2024-02-26T11:27:50;62.87;;;11.83;;
4420;SDS011;11824;51.178;13.546;2024-02-26T11:30:23;13.07;;;8.90;;
4420;SDS011;11824;51.178;13.546;2024-02-26T11:32:55;16.23;;;9.20;;
4420;SDS011;11824;51.178;13.546;2024-02-26T11:35:28;14.63;;;7.50;;
4420;SDS011;11824;51.178;13.546;2024-02-26T11:37:57;10.10;;;7.10;;
4420;SDS011;11824;51.178;13.546;2024-02-26T11:40:29;18.73;;;8.57;;
4420;SDS011;11824;51.178;13.546;2024-02-26T11:43:01;12.30;;;8.17;;
4420;SDS011;11824;51.178;13.546;2024-02-26T11:45:38;14.17;;;7.90;;
4420;SDS011;11824;51.178;13.546;2024-02-26T11:48:21;18.07;;;8.67;;
4420;SDS011;11824;51.178;13.546;2024-02-26T11:50:54;14.37;;;8.10;;
4420;SDS011;11824;51.178;13.546;2024-02-26T11:53:25;12.23;;;9.10;;
4420;SDS011;11824;51.178;13.546;2024-02-26T11:56:17;10.80;;;8.23;;
4420;SDS011;11824;51.178;13.546;2024-02-26T11:58:57;11.20;;;8.27;;
4420;SDS011;11824;51.178;13.546;2024-02-26T12:01:39;14.13;;;8.53;;
4420;SDS011;11824;51.178;13.546;2024-02-26T12:04:18;13.27;;;9.60;;
4420;SDS011;11824;51.178;13.546;2024-02-26T12:06:55;15.47;;;10.10;;
4420;SDS011;11824;51.178;13.546;2024-02-26T12:09:30;15.13;;;9.10;;
4420;SDS011;11824;51.178;13.546;2024-02-26T12:12:00;12.00;;;8.27;;
4420;SDS011;11824;51.178;13.546;2024-02-26T12:14:32;12.87;;;8.70;;
4420;SDS011;11824;51.178;13.546;2024-02-26T12:17:02;15.00;;;8.53;;
4420;SDS011;11824;51.178;13.546;2024-02-26T12:19:33;12.73;;;8.57;;
4420;SDS011;11824;51.178;13.546;2024-02-26T12:22:08;11.70;;;8.53;;
4420;SDS011;11824;51.178;13.546;2024-02-26T12:24:40;14.87;;;8.40;;
4420;SDS011;11824;51.178;13.546;2024-02-26T12:27:09;14.80;;;9.17;;
4420;SDS011;11824;51.178;13.546;2024-02-26T12:29:39;13.00;;;8.90;;
4420;SDS011;11824;51.178;13.546;2024-02-26T12:32:08;11.40;;;7.63;;
4420;SDS011;11824;51.178;13.546;2024-02-26T12:34:38;12.13;;;8.30;;
4420;SDS011;11824;51.178;13.546;2024-02-26T12:37:08;17.23;;;9.47;;
4420;SDS011;11824;51.178;13.546;2024-02-26T12:39:37;12.70;;;9.23;;
4420;SDS011;11824;51.178;13.546;2024-02-26T12:42:07;19.33;;;9.70;;
4420;SDS011;11824;51.178;13.546;2024-02-26T12:44:37;13.57;;;8.30;;
4420;SDS011;11824;51.178;13.546;2024-02-26T12:47:06;12.20;;;8.80;;
4420;SDS011;11824;51.178;13.546;2024-02-26T12:49:34;11.80;;;7.23;;
4420;SDS011;11824;51.178;13.546;2024-02-26T12:52:04;15.73;;;8.77;;
4420;SDS011;11824;51.178;13.546;2024-02-26T12:54:35;22.20;;;11.10;;
4420;SDS011;11824;51.178;13.546;2024-02-26T12:57:06;15.70;;;10.30;;
4420;SDS011;11824;51.178;13.546;2024-02-26T12:59:36;13.13;;;8.27;;
4420;SDS011;11824;51.178;13.546;2024-02-26T13:02:05;9.73;;;7.37;;
4420;SDS011;11824;51.178;13.546;2024-02-26T13:04:35;10.87;;;7.23;;
4420;SDS011;11824;51.178;13.546;2024-02-26T13:07:05;17.77;;;10.20;;
4420;SDS011;11824;51.178;13.546;2024-02-26T13:09:34;22.53;;;10.40;;
4420;SDS011;11824;51.178;13.546;2024-02-26T13:12:05;15.93;;;8.63;;
4420;SDS011;11824;51.178;13.546;2024-02-26T13:14:35;12.30;;;8.00;;
4420;SDS011;11824;51.178;13.546;2024-02-26T13:17:04;12.40;;;8.40;;
4420;SDS011;11824;51.178;13.546;2024-02-26T13:19:33;18.33;;;9.30;;
4420;SDS011;11824;51.178;13.546;2024-02-26T13:22:05;10.60;;;8.07;;
4420;SDS011;11824;51.178;13.546;2024-02-26T13:24:34;14.03;;;8.03;;
4420;SDS011;11824;51.178;13.546;2024-02-26T13:27:05;26.83;;;9.40;;
4420;SDS011;11824;51.178;13.546;2024-02-26T13:29:34;13.20;;;7.80;;
4420;SDS011;11824;51.178;13.546;2024-02-26T13:32:03;12.67;;;9.00;;
4420;SDS011;11824;51.178;13.546;2024-02-26T13:34:33;13.47;;;8.10;;
4420;SDS011;11824;51.178;13.546;2024-02-26T13:37:03;12.77;;;9.37;;
4420;SDS011;11824;51.178;13.546;2024-02-26T13:39:33;11.87;;;8.40;;
4420;SDS011;11824;51.178;13.546;2024-02-26T13:42:07;30.67;;;16.40;;
4420;SDS011;11824;51.178;13.546;2024-02-26T13:44:38;20.20;;;10.87;;
4420;SDS011;11824;51.178;13.546;2024-02-26T13:47:07;12.30;;;7.70;;
4420;SDS011;11824;51.178;13.546;2024-02-26T13:49:36;18.43;;;8.23;;
4420;SDS011;11824;51.178;13.546;2024-02-26T13:52:05;16.57;;;8.47;;
4420;SDS011;11824;51.178;13.546;2024-02-26T13:54:34;37.60;;;22.00;;
4420;SDS011;11824;51.178;13.546;2024-02-26T13:57:05;13.60;;;9.30;;
4420;SDS011;11824;51.178;13.546;2024-02-26T13:59:35;14.03;;;8.50;;
4420;SDS011;11824;51.178;13.546;2024-02-26T14:02:08;24.50;;;16.57;;
4420;SDS011;11824;51.178;13.546;2024-02-26T14:04:37;15.83;;;8.00;;
4420;SDS011;11824;51.178;13.546;2024-02-26T14:07:06;18.03;;;9.83;;
4420;SDS011;11824;51.178;13.546;2024-02-26T14:09:36;13.30;;;7.43;;
4420;SDS011;11824;51.178;13.546;2024-02-26T14:12:16;21.73;;;10.07;;
4420;SDS011;11824;51.178;13.546;2024-02-26T14:14:50;14.03;;;7.77;;
4420;SDS011;11824;51.178;13.546;2024-02-26T14:17:20;26.30;;;14.50;;
4420;SDS011;11824;51.178;13.546;2024-02-26T14:19:49;17.63;;;9.63;;
4420;SDS011;11824;51.178;13.546;2024-02-26T14:22:18;15.00;;;8.67;;
4420;SDS011;11824;51.178;13.546;2024-02-26T14:24:46;9.87;;;7.10;;
4420;SDS011;11824;51.178;13.546;2024-02-26T14:27:18;16.70;;;7.73;;
4420;SDS011;11824;51.178;13.546;2024-02-26T14:29:48;14.17;;;8.07;;
4420;SDS011;11824;51.178;13.546;2024-02-26T14:32:17;17.90;;;7.87;;
4420;SDS011;11824;51.178;13.546;2024-02-26T14:34:46;14.33;;;8.20;;
4420;SDS011;11824;51.178;13.546;2024-02-26T14:37:15;14.77;;;8.20;;
4420;SDS011;11824;51.178;13.546;2024-02-26T14:39:44;11.60;;;7.50;;
4420;SDS011;11824;51.178;13.546;2024-02-26T14:42:15;15.70;;;9.43;;